createdAt,value
2023-03-04T00:02:06.679Z,30.8
2023-03-04T00:07:59.511Z,27.2
2023-03-04T00:13:52.592Z,25.6
2023-03-04T00:19:32.319Z,24.4
2023-03-04T00:25:10.026Z,24.3
2023-03-04T00:31:02.647Z,24.2
2023-03-04T00:36:55.621Z,28.7
2023-03-04T00:42:32.586Z,31.1
2023-03-04T00:47:55.058Z,26.9
2023-03-04T00:53:46.792Z,25.4
2023-03-04T00:59:23.688Z,24.4
2023-03-04T01:05:01.399Z,24.3
2023-03-04T01:10:38.925Z,24
2023-03-04T01:16:16.315Z,29
2023-03-04T01:21:37.763Z,31
2023-03-04T01:27:14.946Z,26.9
2023-03-04T01:32:52.676Z,25.4
2023-03-04T01:38:14.106Z,24.4
2023-03-04T01:43:51.388Z,24.3
2023-03-04T01:49:17.203Z,24.1
2023-03-04T01:54:38.758Z,28.4
2023-03-04T02:00:00.372Z,30.8
2023-03-04T02:05:22.568Z,27.2
2023-03-04T02:10:59.928Z,25.8
2023-03-04T02:16:07.280Z,24.4
2023-03-04T02:21:29.726Z,24.3
2023-03-04T02:27:06.464Z,23.7
2023-03-04T02:32:44.253Z,23.4
2023-03-04T02:38:21.556Z,28.2
2023-03-04T02:43:58.328Z,30.7
2023-03-04T02:49:34.982Z,27.3
2023-03-04T02:55:12.179Z,26
2023-03-04T03:00:18.267Z,24.4
2023-03-04T03:06:11.638Z,24.1
2023-03-04T03:11:49.779Z,23.6
2023-03-04T03:17:13.347Z,24.9
2023-03-04T03:22:50.629Z,29.1
2023-03-04T03:28:27.500Z,30.9
2023-03-04T03:34:04.905Z,26.8
2023-03-04T03:39:42.571Z,25.1
2023-03-04T03:45:04.206Z,24.4
2023-03-04T03:50:27.132Z,23.8
2023-03-04T03:56:04.746Z,23.6
2023-03-04T04:01:42.295Z,26.8
2023-03-04T04:07:20.435Z,29.8
2023-03-04T04:12:57.307Z,28.6
2023-03-04T04:18:34.841Z,26.4
2023-03-04T04:24:00.320Z,24.7
2023-03-04T04:29:37.736Z,24.3
2023-03-04T04:34:44.083Z,23.6
2023-03-04T04:40:21.416Z,23.4
2023-03-04T04:45:43.877Z,28
2023-03-04T04:51:22.492Z,30.1
2023-03-04T04:57:14.951Z,28.1
2023-03-04T05:02:51.649Z,26.3
2023-03-04T05:08:29.424Z,24.6
2023-03-04T05:14:06.576Z,24.3
2023-03-04T05:19:59.086Z,23.6
2023-03-04T05:25:35.743Z,24.1
2023-03-04T05:31:12.725Z,28.8
2023-03-04T05:36:51.329Z,30.8
2023-03-04T05:42:28.478Z,27.1
2023-03-04T05:48:05.202Z,25.9
2023-03-04T05:53:57.969Z,24.4
2023-03-04T05:59:50.632Z,23.9
2023-03-04T06:05:43.590Z,23.5
2023-03-04T06:11:20.728Z,26.9
2023-03-04T06:17:13.714Z,29.9
2023-03-04T06:23:05.560Z,28.7
2023-03-04T06:29:00.786Z,26.4
2023-03-04T06:34:38.476Z,24.6
2023-03-04T06:40:31.237Z,24.2
2023-03-04T06:46:24.949Z,23.6
2023-03-04T06:52:01.922Z,24.2
2023-03-04T06:57:54.556Z,29.1
2023-03-04T07:03:47.022Z,30.7
2023-03-04T07:09:38.737Z,26.6
2023-03-04T07:15:31.512Z,24.9
2023-03-04T07:21:25.402Z,24.2
2023-03-04T07:27:17.221Z,23.6
2023-03-04T07:33:10.401Z,23.3
2023-03-04T07:39:02.488Z,28.3
2023-03-04T07:44:55.431Z,30.8
2023-03-04T07:50:50.664Z,27.4
2023-03-04T07:56:43.535Z,26.4
2023-03-04T08:02:36.010Z,26.1
2023-03-04T08:08:28.220Z,28.1
2023-03-04T08:14:21.126Z,30.7
2023-03-04T08:20:15.369Z,27.4
2023-03-04T08:25:52.751Z,26.5
2023-03-04T08:31:29.598Z,26.1
2023-03-04T08:37:26.241Z,28.3
2023-03-04T08:43:05.656Z,30.9
2023-03-04T08:48:58.281Z,27.4
2023-03-04T08:54:52.357Z,26.4
2023-03-04T09:00:44.588Z,26.1
2023-03-04T09:06:37.208Z,28.6
2023-03-04T09:12:29.732Z,31
2023-03-04T09:18:32.291Z,27.1
2023-03-04T09:24:25.859Z,26.4
2023-03-04T09:30:18.473Z,26.1
2023-03-04T09:36:11.703Z,28.6
2023-03-04T09:41:48.639Z,30.8
2023-03-04T09:47:42.099Z,27.2
2023-03-04T09:53:37.491Z,26.4
2023-03-04T09:59:34.373Z,26.1
2023-03-04T10:05:27.844Z,27.4
2023-03-04T10:11:20.071Z,30.6
2023-03-04T10:17:13.502Z,27.4
2023-03-04T10:23:06.495Z,26
2023-03-04T10:28:46.595Z,25.6
2023-03-04T10:34:39.806Z,25.4
2023-03-04T10:40:32.036Z,28.1
2023-03-04T10:46:25.517Z,27.8
2023-03-04T10:52:18.343Z,26.5
2023-03-04T10:57:57.765Z,26.1
2023-03-04T11:03:50.255Z,25.8
2023-03-04T11:09:52.979Z,25.4
2023-03-04T11:15:45.030Z,25.1
2023-03-04T11:21:39.022Z,27.1
2023-03-04T11:27:46.022Z,29.3
2023-03-04T11:33:39.182Z,26.6
2023-03-04T11:39:32.440Z,26.1
2023-03-04T11:45:42.669Z,25.8
2023-03-04T11:51:35.346Z,25.5
2023-03-04T11:57:29.427Z,25.2
2023-03-04T12:03:22.621Z,26.8
2023-03-04T12:09:16.273Z,30.2
2023-03-04T12:14:55.622Z,26.8
2023-03-04T12:20:48.616Z,26.2
2023-03-04T12:26:26.242Z,25.8
2023-03-04T12:32:24.135Z,25.6
2023-03-04T12:38:02.150Z,25.3
2023-03-04T12:43:38.962Z,24.7
2023-03-04T12:49:32.937Z,28.9
2023-03-04T12:55:26.937Z,27.4
2023-03-04T13:01:19.811Z,26.1
2023-03-04T13:06:43.214Z,25.8
2023-03-04T13:12:38.577Z,25.5
2023-03-04T13:18:18.180Z,27.1
2023-03-04T13:24:11.932Z,30.1
2023-03-04T13:30:05.652Z,26.8
2023-03-04T13:36:00.974Z,26.2
2023-03-04T13:41:41.322Z,25.9
2023-03-04T13:47:34.857Z,25.6
2023-03-04T13:53:40.776Z,25.3
2023-03-04T13:59:37.262Z,24.9
2023-03-04T14:05:31.232Z,28.8
2023-03-04T14:11:09.638Z,27.6
2023-03-04T14:17:02.025Z,26
2023-03-04T14:22:55.848Z,25.6
2023-03-04T14:28:32.740Z,25
2023-03-04T14:34:36.143Z,29.6
2023-03-04T14:40:27.965Z,26.8
2023-03-04T14:46:19.991Z,25.8
2023-03-04T14:52:25.706Z,25.6
2023-03-04T14:58:17.429Z,28.1
2023-03-04T15:04:11.203Z,28.2
2023-03-04T15:10:04.303Z,26.1
2023-03-04T15:15:57.070Z,25.7
2023-03-04T15:21:34.455Z,25.4
2023-03-04T15:27:26.709Z,25.2
2023-03-04T15:33:21.488Z,24.9
2023-03-04T15:39:13.837Z,24.6
2023-03-04T15:45:05.622Z,24.3
2023-03-04T15:50:46.060Z,24
2023-03-04T15:56:24.769Z,29
2023-03-04T16:02:17.139Z,33.1
2023-03-04T16:08:10.015Z,36
2023-03-04T16:14:02.150Z,38.8
2023-03-04T16:19:54.730Z,39.6
2023-03-04T16:25:47.113Z,37.5
2023-03-04T16:31:40.385Z,42.1
2023-03-04T16:37:19.620Z,42.8
2023-03-04T16:43:12.532Z,42.8
2023-03-04T16:48:50.092Z,42.8
2023-03-04T16:54:44.571Z,41.4
2023-03-04T17:00:36.689Z,39.5
2023-03-04T17:06:32.232Z,41.9
2023-03-04T17:12:09.444Z,39.1
2023-03-04T17:17:47.048Z,41
2023-03-04T17:23:38.630Z,38
2023-03-04T17:29:15.833Z,38.3
2023-03-04T17:35:08.637Z,39.4
2023-03-04T17:40:45.401Z,37.5
2023-03-04T17:46:38.422Z,37.3
2023-03-04T17:52:15.093Z,36.8
2023-03-04T17:58:07.126Z,37
2023-03-04T18:03:43.909Z,37.7
2023-03-04T18:09:21.126Z,39.4
2023-03-04T18:15:14.060Z,37.5
2023-03-04T18:20:50.339Z,38.3
2023-03-04T18:26:11.827Z,37.6
2023-03-04T18:31:48.960Z,37.4
2023-03-04T18:37:38.384Z,37
2023-03-04T18:43:30.790Z,36.9
2023-03-04T18:49:24.133Z,39.4
2023-03-04T18:55:16.666Z,41.3
2023-03-04T19:01:09.301Z,37.9
2023-03-04T19:07:01.808Z,39.3
2023-03-04T19:12:37.871Z,39.3
2023-03-04T19:18:16.915Z,38.4
2023-03-04T19:23:54.011Z,40.6
2023-03-04T19:29:31.239Z,39.2
2023-03-04T19:35:24.124Z,39.7
2023-03-04T19:40:45.416Z,41.1
2023-03-04T19:46:07.765Z,42.1
2023-03-04T19:51:45.002Z,40.2
2023-03-04T19:57:22.116Z,38.7
2023-03-04T20:02:59.498Z,39.6
2023-03-04T20:08:21.331Z,38.1
2023-03-04T20:13:38.460Z,37.7
2023-03-04T20:19:16.034Z,37.7
2023-03-04T20:24:37.913Z,37.5
2023-03-04T20:30:15.623Z,39.1
2023-03-04T20:35:53.828Z,37.2
2023-03-04T20:41:42.414Z,37.2
2023-03-04T20:47:34.605Z,37.1
2023-03-04T20:53:11.137Z,36.6
2023-03-04T20:58:17.503Z,36.2
2023-03-04T21:03:54.633Z,35.9
2023-03-04T21:09:47.270Z,35.5
2023-03-04T21:15:40.673Z,34.9
2023-03-04T21:21:33.559Z,34.2
2023-03-04T21:27:29.611Z,33.3
2023-03-04T21:33:21.917Z,32.4
2023-03-04T21:38:59.157Z,31.6
2023-03-04T21:44:49.988Z,31.1
2023-03-04T21:50:29.621Z,30.5
2023-03-04T21:56:07.084Z,30
2023-03-04T22:01:30.384Z,29.6
2023-03-04T22:07:22.282Z,29.2
2023-03-04T22:12:59.389Z,28.9
2023-03-04T22:18:33.308Z,28.6
2023-03-04T22:23:55.194Z,28.3
2023-03-04T22:29:32.400Z,28
2023-03-04T22:34:40.295Z,27.7
2023-03-04T22:40:01.546Z,27.5
2023-03-04T22:45:23.765Z,27.3
2023-03-04T22:50:45.531Z,27
2023-03-04T22:56:22.671Z,25.8
2023-03-04T23:02:15.619Z,25.1
2023-03-04T23:08:07.468Z,25
2023-03-04T23:14:00.466Z,29.5
2023-03-04T23:19:53.202Z,27.8
2023-03-04T23:25:30.216Z,26.9
2023-03-04T23:31:23.984Z,26.6
2023-03-04T23:37:16.539Z,26.4
2023-03-04T23:43:08.845Z,26.3
2023-03-04T23:49:01.766Z,26.1
2023-03-04T23:54:39.212Z,25.8
